createdAt,value
2023-01-17T00:01:52.577Z,89.02
2023-01-17T00:04:20.407Z,89.55
2023-01-17T00:06:48.757Z,90.02
2023-01-17T00:09:17.713Z,90.22
2023-01-17T00:11:46.724Z,89.89
2023-01-17T00:14:14.759Z,89.95
2023-01-17T00:16:43.220Z,89.74
2023-01-17T00:19:10.790Z,89.71
2023-01-17T00:21:38.695Z,89.93
2023-01-17T00:24:08.555Z,90.35
2023-01-17T00:26:38.431Z,89.89
2023-01-17T00:29:05.956Z,89.88
2023-01-17T00:31:34.348Z,89.80
2023-01-17T00:34:01.907Z,90.41
2023-01-17T00:36:29.915Z,89.98
2023-01-17T00:38:57.294Z,88.82
2023-01-17T00:41:29.150Z,89.03
2023-01-17T00:43:58.263Z,88.58
2023-01-17T00:46:26.460Z,90.00
2023-01-17T00:48:54.381Z,90.09
2023-01-17T00:51:23.435Z,89.31
2023-01-17T00:53:50.981Z,89.40
2023-01-17T00:56:18.922Z,89.47
2023-01-17T00:58:46.622Z,90.04
2023-01-17T01:01:16.386Z,90.10
2023-01-17T01:03:43.918Z,89.59
2023-01-17T01:06:12.284Z,89.32
2023-01-17T01:08:40.139Z,88.68
2023-01-17T01:11:10.987Z,87.91
2023-01-17T01:13:38.572Z,87.96
2023-01-17T01:16:07.259Z,88.04
2023-01-17T01:18:36.718Z,88.46
2023-01-17T01:21:05.078Z,87.86
2023-01-17T01:23:32.725Z,87.72
2023-01-17T01:26:03.385Z,87.60
2023-01-17T01:28:31.121Z,87.53
2023-01-17T01:30:59.827Z,86.02
2023-01-17T01:33:27.469Z,85.70
2023-01-17T01:35:57.155Z,85.58
2023-01-17T01:38:25.672Z,85.36
2023-01-17T01:40:55.551Z,83.09
2023-01-17T01:43:44.115Z,81.96
2023-01-17T01:46:14.973Z,81.89
2023-01-17T01:48:47.120Z,82.59
2023-01-17T01:51:19.732Z,83.44
2023-01-17T01:53:52.488Z,83.75
2023-01-17T01:56:22.697Z,83.34
2023-01-17T01:58:53.012Z,82.85
2023-01-17T02:01:21.237Z,83.61
2023-01-17T02:03:49.922Z,83.26
2023-01-17T02:06:32.446Z,82.62
2023-01-17T02:09:04.171Z,83.07
2023-01-17T02:11:33.676Z,82.97
2023-01-17T02:14:01.565Z,82.51
2023-01-17T02:16:45.265Z,82.61
2023-01-17T02:19:55.929Z,82.31
2023-01-17T02:22:53.654Z,81.94
2023-01-17T02:25:59.196Z,81.76
2023-01-17T02:28:44.049Z,81.21
2023-01-17T02:31:19.176Z,81.02
2023-01-17T02:33:57.211Z,80.10
2023-01-17T02:36:31.951Z,79.78
2023-01-17T02:39:08.052Z,79.88
2023-01-17T02:41:39.380Z,80.44
2023-01-17T02:44:10.120Z,81.08
2023-01-17T02:46:46.358Z,81.10
2023-01-17T02:49:16.267Z,81.68
2023-01-17T02:51:56.280Z,81.52
2023-01-17T02:54:38.421Z,81.18
2023-01-17T02:57:23.566Z,81.54
2023-01-17T02:59:59.811Z,82.03
2023-01-17T03:02:38.528Z,81.77
2023-01-17T03:05:09.663Z,80.54
2023-01-17T03:07:40.227Z,79.92
2023-01-17T03:10:10.251Z,79.75
2023-01-17T03:12:39.666Z,78.94
2023-01-17T03:15:11.044Z,78.43
2023-01-17T03:17:43.765Z,76.83
2023-01-17T03:20:12.524Z,75.27
2023-01-17T03:22:40.252Z,75.33
2023-01-17T03:25:09.291Z,74.81
2023-01-17T03:27:36.816Z,74.92
2023-01-17T03:30:06.040Z,75.13
2023-01-17T03:32:33.774Z,75.63
2023-01-17T03:35:04.024Z,75.92
2023-01-17T03:37:31.626Z,76.27
2023-01-17T03:40:02.752Z,77.00
2023-01-17T03:42:30.318Z,77.31
2023-01-17T03:44:58.322Z,77.93
2023-01-17T03:47:25.988Z,78.67
2023-01-17T03:49:53.965Z,79.11
2023-01-17T03:52:23.232Z,80.50
2023-01-17T03:54:51.377Z,80.07
2023-01-17T03:57:19.165Z,79.53
2023-01-17T03:59:47.475Z,79.97
2023-01-17T04:02:15.202Z,79.90
2023-01-17T04:04:43.910Z,79.68
2023-01-17T04:07:11.445Z,80.67
2023-01-17T04:09:40.943Z,81.20
2023-01-17T04:12:08.581Z,81.47
2023-01-17T04:14:36.520Z,81.37
2023-01-17T04:17:04.013Z,81.71
2023-01-17T04:19:34.097Z,81.18
2023-01-17T04:22:01.769Z,80.89
2023-01-17T04:24:30.167Z,80.84
2023-01-17T04:26:59.461Z,79.72
2023-01-17T04:29:27.348Z,77.90
2023-01-17T04:31:54.928Z,77.40
2023-01-17T04:34:23.516Z,78.41
2023-01-17T04:36:51.161Z,79.40
2023-01-17T04:39:19.164Z,79.45
2023-01-17T04:41:46.681Z,79.65
2023-01-17T04:44:16.188Z,79.85
2023-01-17T04:46:43.838Z,80.15
2023-01-17T04:49:12.036Z,79.67
2023-01-17T04:51:39.640Z,79.50
2023-01-17T04:54:07.717Z,78.96
2023-01-17T04:56:35.581Z,77.33
2023-01-17T04:59:04.154Z,76.85
2023-01-17T05:01:33.294Z,76.23
2023-01-17T05:04:01.953Z,76.25
2023-01-17T05:06:30.073Z,76.28
2023-01-17T05:08:58.039Z,76.75
2023-01-17T05:11:25.617Z,76.42
2023-01-17T05:13:53.524Z,76.23
2023-01-17T05:16:21.153Z,76.13
2023-01-17T05:18:53.429Z,76.05
2023-01-17T05:21:21.908Z,75.43
2023-01-17T05:23:49.924Z,75.06
2023-01-17T05:26:17.500Z,74.53
2023-01-17T05:28:45.652Z,74.17
2023-01-17T05:31:13.314Z,73.77
2023-01-17T05:33:41.384Z,73.46
2023-01-17T05:36:10.601Z,72.45
2023-01-17T05:38:38.902Z,71.93
2023-01-17T05:41:06.853Z,70.66
2023-01-17T05:43:34.895Z,70.49
2023-01-17T05:46:02.840Z,70.08
2023-01-17T05:48:30.828Z,70.38
2023-01-17T05:50:58.461Z,71.31
2023-01-17T05:53:28.342Z,71.91
2023-01-17T05:55:55.986Z,72.26
2023-01-17T05:58:24.231Z,71.80
2023-01-17T06:00:53.361Z,72.36
2023-01-17T06:03:21.513Z,72.84
2023-01-17T06:05:49.167Z,72.91
2023-01-17T06:08:17.520Z,72.22
2023-01-17T06:10:46.540Z,71.35
2023-01-17T06:13:14.837Z,70.13
2023-01-17T06:15:42.632Z,69.33
2023-01-17T06:18:13.360Z,68.96
2023-01-17T06:20:41.332Z,68.83
2023-01-17T06:23:12.171Z,68.27
2023-01-17T06:25:41.700Z,67.97
2023-01-17T06:28:12.263Z,67.25
2023-01-17T06:30:40.101Z,67.20
2023-01-17T06:33:08.629Z,67.00
2023-01-17T06:35:36.886Z,66.69
2023-01-17T06:38:05.353Z,67.05
2023-01-17T06:40:33.310Z,66.99
2023-01-17T06:43:01.628Z,67.09
2023-01-17T06:45:33.366Z,66.55
2023-01-17T06:48:01.653Z,67.01
2023-01-17T06:50:29.258Z,67.13
2023-01-17T06:52:59.808Z,67.23
2023-01-17T06:55:28.366Z,67.32
2023-01-17T06:57:57.581Z,67.15
2023-01-17T07:00:25.828Z,66.63
2023-01-17T07:02:55.661Z,66.49
2023-01-17T07:05:23.734Z,66.61
2023-01-17T07:07:51.826Z,65.48
2023-01-17T07:10:19.641Z,64.86
2023-01-17T07:12:47.912Z,64.73
2023-01-17T07:15:15.669Z,65.68
2023-01-17T07:17:43.737Z,64.94
2023-01-17T07:20:13.662Z,65.18
2023-01-17T07:22:45.284Z,65.85
2023-01-17T07:25:13.141Z,66.44
2023-01-17T07:27:41.274Z,67.64
2023-01-17T07:30:10.300Z,68.95
2023-01-17T07:32:38.617Z,69.08
2023-01-17T07:35:07.233Z,68.59
2023-01-17T07:37:37.088Z,67.83
2023-01-17T07:40:05.776Z,67.33
2023-01-17T07:42:33.878Z,67.25
2023-01-17T07:45:01.429Z,67.17
2023-01-17T07:47:29.361Z,67.97
2023-01-17T07:49:57.191Z,67.71
2023-01-17T07:52:25.624Z,66.50
2023-01-17T07:54:54.772Z,66.82
2023-01-17T07:57:23.248Z,68.19
2023-01-17T07:59:51.167Z,67.95
2023-01-17T08:02:21.426Z,67.60
2023-01-17T08:04:49.985Z,67.28
2023-01-17T08:07:21.412Z,66.40
2023-01-17T08:09:49.165Z,66.46
2023-01-17T08:12:18.746Z,66.21
2023-01-17T08:14:46.538Z,67.18
2023-01-17T08:17:16.691Z,66.64
2023-01-17T08:19:44.816Z,65.50
2023-01-17T08:22:13.232Z,64.76
2023-01-17T08:24:40.916Z,64.49
2023-01-17T08:27:09.309Z,64.25
2023-01-17T08:29:38.660Z,63.68
2023-01-17T08:32:07.152Z,64.15
2023-01-17T08:34:34.824Z,63.06
2023-01-17T08:37:02.862Z,62.03
2023-01-17T08:39:30.424Z,62.73
2023-01-17T08:41:58.412Z,62.64
2023-01-17T08:44:25.875Z,63.85
2023-01-17T08:46:55.448Z,63.65
2023-01-17T08:49:23.083Z,64.66
2023-01-17T08:51:51.374Z,64.21
2023-01-17T08:54:19.030Z,64.20
2023-01-17T08:56:46.978Z,63.31
2023-01-17T08:59:14.774Z,64.01
2023-01-17T09:01:42.684Z,63.57
2023-01-17T09:04:12.277Z,63.35
2023-01-17T09:06:41.258Z,63.58
2023-01-17T09:09:09.188Z,64.29
2023-01-17T09:11:37.604Z,62.91
2023-01-17T09:14:05.112Z,64.37
2023-01-17T09:16:33.288Z,62.17
2023-01-17T09:19:01.105Z,60.56
2023-01-17T09:21:30.866Z,57.29
2023-01-17T09:23:58.241Z,55.24
2023-01-17T09:26:27.392Z,56.45
2023-01-17T09:28:55.830Z,55.25
2023-01-17T09:31:24.709Z,53.83
2023-01-17T09:33:53.619Z,53.05
2023-01-17T09:36:21.807Z,51.62
2023-01-17T09:38:56.569Z,50.82
2023-01-17T09:41:28.263Z,52.36
2023-01-17T09:44:01.122Z,50.83
2023-01-17T09:46:32.186Z,53.23
2023-01-17T09:49:06.473Z,51.85
2023-01-17T09:51:35.918Z,52.45
2023-01-17T09:54:05.466Z,52.45
2023-01-17T09:56:37.803Z,52.64
2023-01-17T09:59:32.797Z,55.39
2023-01-17T10:02:20.213Z,55.34
2023-01-17T10:05:04.184Z,56.14
2023-01-17T10:07:42.294Z,57.26
2023-01-17T10:10:36.769Z,58.80
2023-01-17T10:13:17.051Z,57.30
2023-01-17T10:15:58.588Z,58.05
2023-01-17T10:19:04.540Z,58.23
2023-01-17T10:21:55.893Z,57.95
2023-01-17T10:24:47.372Z,57.05
2023-01-17T10:27:22.112Z,57.18
2023-01-17T10:29:51.675Z,54.78
2023-01-17T10:32:22.746Z,55.53
2023-01-17T10:34:52.893Z,56.10
2023-01-17T10:37:26.150Z,57.81
2023-01-17T10:39:58.197Z,55.94
2023-01-17T10:42:37.598Z,56.49
2023-01-17T10:45:15.380Z,57.66
2023-01-17T10:47:48.468Z,57.01
2023-01-17T10:50:16.571Z,57.51
2023-01-17T10:52:51.608Z,57.65
2023-01-17T10:55:34.540Z,56.83
2023-01-17T10:58:03.791Z,55.89
2023-01-17T11:00:40.569Z,56.91
2023-01-17T11:03:11.213Z,55.57
2023-01-17T11:05:40.036Z,54.32
2023-01-17T11:08:08.858Z,52.89
2023-01-17T11:10:40.138Z,53.16
2023-01-17T11:13:25.151Z,52.52
2023-01-17T11:15:56.810Z,52.15
2023-01-17T11:18:27.194Z,52.10
2023-01-17T11:21:07.880Z,51.48
2023-01-17T11:23:36.156Z,51.68
2023-01-17T11:26:07.082Z,51.31
2023-01-17T11:28:38.089Z,51.52
2023-01-17T11:31:07.844Z,51.23
2023-01-17T11:33:38.477Z,51.27
2023-01-17T11:36:14.828Z,51.60
2023-01-17T11:38:54.910Z,50.42
2023-01-17T11:41:23.293Z,51.54
2023-01-17T11:43:54.908Z,50.85
2023-01-17T11:46:24.554Z,51.23
2023-01-17T11:48:56.175Z,52.04
2023-01-17T11:51:29.723Z,52.62
2023-01-17T11:54:15.146Z,52.97
2023-01-17T11:56:43.977Z,50.16
2023-01-17T11:59:24.999Z,50.72
2023-01-17T12:02:05.008Z,50.06
2023-01-17T12:04:38.822Z,50.07
2023-01-17T12:07:27.635Z,50.21
2023-01-17T12:10:02.714Z,48.25
2023-01-17T12:12:44.114Z,48.70
2023-01-17T12:15:29.462Z,50.75
2023-01-17T12:18:21.923Z,48.26
2023-01-17T12:20:57.059Z,49.01
2023-01-17T12:23:39.451Z,47.50
2023-01-17T12:26:21.612Z,46.70
2023-01-17T12:29:22.986Z,47.12
2023-01-17T12:32:04.863Z,47.26
2023-01-17T12:34:37.327Z,47.26
2023-01-17T12:37:13.528Z,48.41
2023-01-17T12:39:55.252Z,48.92
2023-01-17T12:42:31.277Z,49.11
2023-01-17T12:45:04.508Z,50.91
2023-01-17T12:47:37.086Z,50.83
2023-01-17T12:50:15.834Z,51.91
2023-01-17T12:52:53.646Z,51.60
2023-01-17T12:55:34.619Z,51.45
2023-01-17T12:58:06.292Z,51.24
2023-01-17T13:00:39.017Z,50.58
2023-01-17T13:03:18.281Z,50.27
2023-01-17T13:05:47.596Z,50.34
2023-01-17T13:08:22.372Z,50.20
2023-01-17T13:10:56.469Z,49.73
2023-01-17T13:13:26.478Z,50.65
2023-01-17T13:15:58.188Z,48.33
2023-01-17T13:18:29.294Z,49.56
2023-01-17T13:21:30.039Z,48.85
2023-01-17T13:24:26.202Z,49.54
2023-01-17T13:27:11.890Z,49.68
2023-01-17T13:29:50.760Z,49.91
2023-01-17T13:32:40.400Z,49.70
2023-01-17T13:35:22.377Z,50.26
2023-01-17T13:38:08.364Z,50.85
2023-01-17T13:40:49.132Z,51.35
2023-01-17T13:43:22.739Z,51.74
2023-01-17T13:45:55.841Z,52.05
2023-01-17T13:48:29.886Z,51.41
2023-01-17T13:51:00.684Z,51.34
2023-01-17T13:53:56.812Z,51.60
2023-01-17T13:56:32.868Z,49.76
2023-01-17T13:59:30.401Z,50.09
2023-01-17T14:01:58.285Z,49.56
2023-01-17T14:04:59.626Z,48.97
2023-01-17T14:07:34.658Z,49.12
2023-01-17T14:10:29.825Z,49.68
2023-01-17T14:12:57.655Z,49.53
2023-01-17T14:15:27.497Z,48.54
2023-01-17T14:17:59.306Z,48.66
2023-01-17T14:20:39.738Z,48.87
2023-01-17T14:23:23.435Z,48.36
2023-01-17T14:25:52.865Z,48.48
2023-01-17T14:28:28.641Z,48.87
2023-01-17T14:30:59.585Z,49.23
2023-01-17T14:33:29.321Z,49.58
2023-01-17T14:35:58.996Z,49.88
2023-01-17T14:38:29.754Z,51.41
2023-01-17T14:41:01.116Z,53.60
2023-01-17T14:43:31.004Z,54.95
2023-01-17T14:46:01.673Z,55.00
2023-01-17T14:48:29.724Z,55.44
2023-01-17T14:50:58.283Z,56.00
2023-01-17T14:53:28.185Z,55.72
2023-01-17T14:55:59.730Z,57.20
2023-01-17T14:58:29.738Z,57.50
2023-01-17T15:01:01.079Z,58.23
2023-01-17T15:03:30.276Z,58.58
2023-01-17T15:06:09.736Z,57.63
2023-01-17T15:08:39.031Z,57.59
2023-01-17T15:11:10.381Z,56.89
2023-01-17T15:13:44.609Z,57.30
2023-01-17T15:16:23.291Z,58.19
2023-01-17T15:18:51.468Z,58.61
2023-01-17T15:21:21.520Z,58.21
2023-01-17T15:23:53.666Z,58.26
2023-01-17T15:26:25.004Z,58.12
2023-01-17T15:28:53.547Z,58.10
2023-01-17T15:31:25.401Z,58.97
2023-01-17T15:33:56.365Z,59.39
2023-01-17T15:36:28.267Z,60.56
2023-01-17T15:39:00.292Z,61.43
2023-01-17T15:41:32.361Z,61.16
2023-01-17T15:44:00.502Z,59.77
2023-01-17T15:46:32.075Z,60.17
2023-01-17T15:49:17.609Z,60.13
2023-01-17T15:51:52.195Z,61.34
2023-01-17T15:54:50.203Z,60.45
2023-01-17T15:57:22.737Z,60.30
2023-01-17T15:59:57.344Z,60.22
2023-01-17T16:02:43.784Z,60.46
2023-01-17T16:05:36.055Z,60.43
2023-01-17T16:08:38.986Z,60.72
2023-01-17T16:11:11.317Z,60.31
2023-01-17T16:13:39.750Z,59.83
2023-01-17T16:16:19.394Z,59.13
2023-01-17T16:18:48.548Z,58.26
2023-01-17T16:21:25.718Z,57.95
2023-01-17T16:23:54.185Z,58.01
2023-01-17T16:26:23.816Z,57.06
2023-01-17T16:28:54.957Z,56.17
2023-01-17T16:31:22.741Z,55.98
2023-01-17T16:33:51.044Z,56.95
2023-01-17T16:36:19.051Z,57.06
2023-01-17T16:38:50.123Z,56.51
2023-01-17T16:41:18.095Z,56.20
2023-01-17T16:43:57.929Z,58.14
2023-01-17T16:46:25.991Z,61.65
2023-01-17T16:48:54.436Z,62.95
2023-01-17T16:51:22.174Z,63.16
2023-01-17T16:53:50.135Z,61.58
2023-01-17T16:56:19.465Z,62.42
2023-01-17T16:58:51.119Z,62.13
2023-01-17T17:01:19.363Z,61.20
2023-01-17T17:03:47.732Z,60.27
2023-01-17T17:06:15.430Z,59.78
2023-01-17T17:08:43.570Z,58.98
2023-01-17T17:11:13.844Z,58.20
2023-01-17T17:13:42.993Z,58.36
2023-01-17T17:16:14.489Z,57.86
2023-01-17T17:18:43.346Z,57.38
2023-01-17T17:21:11.132Z,57.72
2023-01-17T17:23:39.108Z,57.68
2023-01-17T17:26:07.126Z,58.58
2023-01-17T17:28:35.196Z,57.92
2023-01-17T17:31:08.904Z,60.06
2023-01-17T17:33:38.807Z,60.17
2023-01-17T17:36:08.350Z,60.24
2023-01-17T17:38:37.007Z,59.30
2023-01-17T17:41:06.813Z,58.99
2023-01-17T17:43:39.289Z,60.41
2023-01-17T17:46:08.083Z,59.61
2023-01-17T17:48:36.678Z,61.32
2023-01-17T17:51:06.672Z,63.10
2023-01-17T17:53:34.710Z,62.36
2023-01-17T17:56:04.324Z,63.28
2023-01-17T17:58:34.479Z,63.77
2023-01-17T18:01:04.355Z,67.38
2023-01-17T18:03:32.753Z,66.31
2023-01-17T18:06:07.714Z,65.46
2023-01-17T18:08:37.254Z,65.18
2023-01-17T18:11:07.082Z,65.28
2023-01-17T18:13:35.259Z,66.55
2023-01-17T18:16:04.722Z,67.95
2023-01-17T18:18:33.648Z,67.40
2023-01-17T18:21:12.282Z,67.10
2023-01-17T18:23:42.036Z,66.11
2023-01-17T18:26:16.797Z,66.94
2023-01-17T18:28:44.955Z,67.11
2023-01-17T18:31:12.804Z,67.92
2023-01-17T18:33:41.118Z,66.73
2023-01-17T18:36:11.624Z,65.97
2023-01-17T18:38:41.141Z,66.56
2023-01-17T18:41:11.448Z,66.62
2023-01-17T18:43:39.734Z,67.07
2023-01-17T18:46:08.682Z,67.22
2023-01-17T18:48:37.458Z,67.46
2023-01-17T18:51:07.310Z,67.67
2023-01-17T18:53:38.253Z,66.69
2023-01-17T18:56:08.430Z,67.69
2023-01-17T18:58:37.618Z,67.74
2023-01-17T19:01:10.378Z,68.43
2023-01-17T19:03:40.123Z,68.04
2023-01-17T19:06:10.092Z,68.61
2023-01-17T19:08:39.740Z,68.73
2023-01-17T19:11:07.558Z,68.99
2023-01-17T19:13:37.546Z,69.64
2023-01-17T19:16:07.547Z,69.61
2023-01-17T19:18:36.113Z,69.82
2023-01-17T19:21:06.146Z,70.13
2023-01-17T19:23:34.956Z,70.59
2023-01-17T19:26:05.150Z,70.98
2023-01-17T19:28:35.391Z,70.85
2023-01-17T19:31:04.933Z,69.91
2023-01-17T19:33:34.205Z,69.61
2023-01-17T19:36:02.959Z,69.22
2023-01-17T19:38:31.588Z,70.73
2023-01-17T19:41:09.469Z,71.34
2023-01-17T19:43:38.324Z,71.21
2023-01-17T19:46:07.682Z,70.29
2023-01-17T19:48:36.565Z,69.42
2023-01-17T19:51:06.228Z,70.84
2023-01-17T19:53:34.753Z,69.28
2023-01-17T19:56:05.632Z,67.66
2023-01-17T19:58:35.435Z,66.05
2023-01-17T20:01:08.331Z,66.61
2023-01-17T20:03:37.168Z,68.03
2023-01-17T20:06:06.211Z,67.63
2023-01-17T20:08:35.463Z,66.61
2023-01-17T20:11:04.958Z,66.62
2023-01-17T20:13:34.873Z,67.17
2023-01-17T20:16:03.337Z,68.52
2023-01-17T20:18:32.791Z,70.90
2023-01-17T20:21:03.833Z,70.61
2023-01-17T20:23:33.848Z,67.97
2023-01-17T20:26:01.831Z,69.32
2023-01-17T20:28:31.277Z,68.65
2023-01-17T20:31:05.377Z,71.71
2023-01-17T20:33:33.730Z,71.86
2023-01-17T20:36:10.164Z,72.42
2023-01-17T20:38:39.328Z,71.76
2023-01-17T20:41:06.974Z,71.70
2023-01-17T20:43:35.277Z,69.71
2023-01-17T20:46:05.786Z,70.94
2023-01-17T20:48:34.535Z,68.62
2023-01-17T20:51:06.757Z,68.18
2023-01-17T20:53:35.038Z,69.21
2023-01-17T20:56:03.157Z,71.34
2023-01-17T20:58:31.667Z,71.38
2023-01-17T21:00:59.519Z,71.27
2023-01-17T21:03:29.512Z,70.54
2023-01-17T21:06:00.908Z,70.33
2023-01-17T21:08:29.370Z,71.25
2023-01-17T21:10:57.359Z,73.03
2023-01-17T21:13:26.627Z,74.65
2023-01-17T21:15:54.688Z,71.46
2023-01-17T21:18:25.168Z,70.36
2023-01-17T21:20:54.396Z,69.35
2023-01-17T21:23:23.003Z,69.57
2023-01-17T21:25:58.125Z,74.67
2023-01-17T21:28:28.389Z,74.50
2023-01-17T21:30:56.627Z,74.25
2023-01-17T21:33:26.798Z,73.43
2023-01-17T21:35:55.872Z,72.74
2023-01-17T21:38:23.987Z,72.28
2023-01-17T21:40:56.549Z,71.88
2023-01-17T21:43:24.563Z,72.11
2023-01-17T21:45:52.326Z,71.72
2023-01-17T21:48:20.697Z,72.99
2023-01-17T21:50:48.490Z,72.61
2023-01-17T21:53:18.334Z,71.68
2023-01-17T21:55:46.244Z,71.81
2023-01-17T21:58:15.294Z,72.23
2023-01-17T22:00:43.129Z,73.61
2023-01-17T22:03:11.480Z,75.71
2023-01-17T22:05:39.271Z,74.32
2023-01-17T22:08:07.320Z,73.53
2023-01-17T22:10:36.434Z,73.10
2023-01-17T22:13:04.560Z,72.18
2023-01-17T22:15:32.154Z,72.25
2023-01-17T22:18:00.543Z,71.53
2023-01-17T22:20:28.095Z,72.17
2023-01-17T22:22:56.398Z,71.96
2023-01-17T22:25:24.224Z,72.53
2023-01-17T22:27:53.954Z,72.48
2023-01-17T22:30:21.758Z,71.84
2023-01-17T22:32:49.706Z,71.26
2023-01-17T22:35:17.436Z,71.83
2023-01-17T22:37:45.820Z,70.82
2023-01-17T22:40:13.961Z,71.22
2023-01-17T22:42:41.934Z,70.73
2023-01-17T22:45:12.179Z,70.54
2023-01-17T22:47:40.651Z,71.30
2023-01-17T22:50:09.449Z,72.72
2023-01-17T22:52:37.671Z,72.82
2023-01-17T22:55:06.343Z,72.40
2023-01-17T22:57:34.621Z,72.30
2023-01-17T23:00:02.321Z,72.80
2023-01-17T23:02:32.195Z,73.38
2023-01-17T23:04:59.879Z,72.82
2023-01-17T23:07:28.177Z,72.79
2023-01-17T23:09:55.815Z,72.74
2023-01-17T23:12:23.890Z,73.48
2023-01-17T23:14:51.572Z,73.73
2023-01-17T23:17:21.803Z,74.10
2023-01-17T23:19:53.112Z,73.47
2023-01-17T23:22:23.484Z,73.79
2023-01-17T23:24:52.681Z,73.48
2023-01-17T23:27:22.913Z,74.09
2023-01-17T23:29:50.711Z,74.06
2023-01-17T23:32:18.659Z,75.57
2023-01-17T23:34:46.291Z,75.76
2023-01-17T23:37:16.122Z,75.38
2023-01-17T23:39:43.662Z,74.70
2023-01-17T23:42:11.823Z,74.51
2023-01-17T23:44:39.381Z,75.27
2023-01-17T23:47:07.401Z,74.86
2023-01-17T23:49:34.996Z,74.55
2023-01-17T23:52:05.344Z,73.82
2023-01-17T23:54:34.435Z,73.99
2023-01-17T23:57:02.648Z,74.29
2023-01-17T23:59:30.605Z,75.19
